createdAt,value
2022-08-10T00:04:07.174Z,17.94
2022-08-10T00:09:08.914Z,17.66
2022-08-10T00:14:10.930Z,17.66
2022-08-10T00:19:13.075Z,17.68
2022-08-10T00:24:18.521Z,17.61
2022-08-10T00:29:20.307Z,17.58
2022-08-10T00:34:22.065Z,17.51
2022-08-10T00:39:24.453Z,17.51
2022-08-10T00:44:26.957Z,17.48
2022-08-10T00:49:28.942Z,17.31
2022-08-10T00:54:31.058Z,17.27
2022-08-10T00:59:33.801Z,17.32
2022-08-10T01:04:59.276Z,17.32
2022-08-10T01:10:23.872Z,17.15
2022-08-10T01:15:34.471Z,17.08
2022-08-10T01:20:39.208Z,17.04
2022-08-10T01:26:12.329Z,17.00
2022-08-10T01:31:14.506Z,16.91
2022-08-10T01:36:32.606Z,16.82
2022-08-10T01:41:46.561Z,16.72
2022-08-10T01:46:53.185Z,16.58
2022-08-10T01:52:01.556Z,16.51
2022-08-10T01:57:04.393Z,16.46
2022-08-10T02:02:08.114Z,16.44
2022-08-10T02:07:14.660Z,16.43
2022-08-10T02:12:21.689Z,16.35
2022-08-10T02:18:00.637Z,16.21
2022-08-10T02:23:00.283Z,16.14
2022-08-10T02:28:04.934Z,16.22
2022-08-10T02:33:07.457Z,16.30
2022-08-10T02:38:10.398Z,16.16
2022-08-10T02:45:27.006Z,16.17
2022-08-10T02:49:05.208Z,15.93
2022-08-10T02:54:11.795Z,15.96
2022-08-10T02:59:27.934Z,15.87
2022-08-10T03:04:56.966Z,15.87
2022-08-10T03:10:02.700Z,15.75
2022-08-10T03:15:09.051Z,15.76
2022-08-10T03:20:38.058Z,15.79
2022-08-10T03:25:52.583Z,15.76
2022-08-10T03:30:58.150Z,15.61
2022-08-10T03:36:40.580Z,15.52
2022-08-10T03:41:36.555Z,15.55
2022-08-10T03:46:41.876Z,15.58
2022-08-10T03:51:45.344Z,15.70
2022-08-10T03:56:47.852Z,15.53
2022-08-10T04:02:44.803Z,15.57
2022-08-10T04:07:14.313Z,15.54
2022-08-10T04:12:16.110Z,15.38
2022-08-10T04:17:18.387Z,15.49
2022-08-10T04:22:41.401Z,15.46
2022-08-10T04:27:43.834Z,15.48
2022-08-10T04:32:48.669Z,15.42
2022-08-10T04:37:51.756Z,15.47
2022-08-10T04:42:54.427Z,15.51
2022-08-10T04:48:03.650Z,15.44
2022-08-10T04:53:05.479Z,15.38
2022-08-10T04:58:07.250Z,15.32
2022-08-10T05:03:08.964Z,15.44
2022-08-10T05:08:10.734Z,15.52
2022-08-10T05:13:12.450Z,15.61
2022-08-10T05:18:14.208Z,15.72
2022-08-10T05:23:15.951Z,15.86
2022-08-10T05:28:17.623Z,16.04
2022-08-10T05:33:19.360Z,16.33
2022-08-10T05:38:23.585Z,16.69
2022-08-10T05:43:25.438Z,17.03
2022-08-10T05:48:55.248Z,17.32
2022-08-10T05:54:02.481Z,17.63
2022-08-10T05:59:07.175Z,17.89
2022-08-10T06:04:11.469Z,18.18
2022-08-10T06:09:16.071Z,18.46
2022-08-10T06:14:36.828Z,18.76
2022-08-10T06:19:39.253Z,19.06
2022-08-10T06:25:04.556Z,19.32
2022-08-10T06:30:20.789Z,19.58
2022-08-10T06:35:27.689Z,19.88
2022-08-10T06:40:35.191Z,20.15
2022-08-10T06:45:44.046Z,20.44
2022-08-10T06:50:58.182Z,20.70
2022-08-10T06:56:13.495Z,20.91
2022-08-10T07:01:20.998Z,21.14
2022-08-10T07:06:23.471Z,21.27
2022-08-10T07:11:27.286Z,21.44
2022-08-10T07:16:32.363Z,21.51
2022-08-10T07:21:35.878Z,21.69
2022-08-10T07:26:43.102Z,21.84
2022-08-10T07:31:55.465Z,21.98
2022-08-10T07:37:03.669Z,22.15
2022-08-10T07:42:09.889Z,22.41
2022-08-10T07:47:46.156Z,22.60
2022-08-10T07:52:47.382Z,22.79
2022-08-10T07:57:52.352Z,22.94
2022-08-10T08:02:56.697Z,23.14
2022-08-10T08:08:01.170Z,23.21
2022-08-10T08:13:03.665Z,23.34
2022-08-10T08:18:09.320Z,23.54
2022-08-10T08:24:10.981Z,23.74
2022-08-10T08:28:37.138Z,23.85
2022-08-10T08:33:42.010Z,24.04
2022-08-10T08:38:45.360Z,24.18
2022-08-10T08:43:59.452Z,24.22
2022-08-10T08:50:05.305Z,24.38
2022-08-10T08:55:04.204Z,24.33
2022-08-10T09:00:56.913Z,24.19
2022-08-10T09:06:12.856Z,24.28
2022-08-10T09:11:33.043Z,24.37
2022-08-10T09:17:03.343Z,24.42
2022-08-10T09:22:17.953Z,24.63
2022-08-10T09:27:35.182Z,24.68
2022-08-10T09:36:13.779Z,24.95
2022-08-10T09:38:28.318Z,25.13
2022-08-10T09:43:47.321Z,25.21
2022-08-10T09:49:05.382Z,25.35
2022-08-10T09:54:13.087Z,25.38
2022-08-10T10:00:01.859Z,25.43
2022-08-10T10:05:08.960Z,25.78
2022-08-10T10:10:16.858Z,26.06
2022-08-10T10:15:35.260Z,26.13
2022-08-10T10:21:07.402Z,25.94
2022-08-10T10:26:31.371Z,26.05
2022-08-10T10:31:49.799Z,26.30
2022-08-10T10:36:52.576Z,26.50
2022-08-10T10:42:44.757Z,26.51
2022-08-10T10:48:02.764Z,26.62
2022-08-10T10:53:22.302Z,26.61
2022-08-10T10:58:28.734Z,26.57
2022-08-10T11:04:13.631Z,26.89
2022-08-10T11:10:05.451Z,27.18
2022-08-10T11:14:52.927Z,27.44
2022-08-10T11:20:18.188Z,27.61
2022-08-10T11:25:36.201Z,27.59
2022-08-10T11:30:56.339Z,27.28
2022-08-10T11:36:16.124Z,26.98
2022-08-10T11:42:07.981Z,27.40
2022-08-10T11:47:15.267Z,27.69
2022-08-10T11:52:27.690Z,27.87
2022-08-10T11:57:53.827Z,27.78
2022-08-10T12:03:01.765Z,27.65
2022-08-10T12:10:03.972Z,27.50
2022-08-10T12:13:36.106Z,27.17
2022-08-10T12:19:04.360Z,27.33
2022-08-10T12:24:16.235Z,27.93
2022-08-10T12:29:27.706Z,28.32
2022-08-10T12:34:36.430Z,28.21
2022-08-10T12:39:53.150Z,28.06
2022-08-10T12:45:03.388Z,28.41
2022-08-10T12:50:30.877Z,28.35
2022-08-10T12:55:38.434Z,28.48
2022-08-10T13:01:05.711Z,28.62
2022-08-10T13:06:09.290Z,28.80
2022-08-10T13:11:25.724Z,29.04
2022-08-10T13:16:36.939Z,29.06
2022-08-10T13:21:41.267Z,29.17
2022-08-10T13:27:24.848Z,29.27
2022-08-10T13:32:22.954Z,29.07
2022-08-10T13:37:27.457Z,29.21
2022-08-10T13:42:35.805Z,29.48
2022-08-10T13:47:49.164Z,29.41
2022-08-10T13:52:54.514Z,29.11
2022-08-10T13:57:59.684Z,28.72
2022-08-10T14:03:08.121Z,28.96
2022-08-10T14:08:13.896Z,29.19
2022-08-10T14:13:18.238Z,29.23
2022-08-10T14:18:20.704Z,29.06
2022-08-10T14:23:22.617Z,29.15
2022-08-10T14:28:31.433Z,29.38
2022-08-10T14:33:36.158Z,29.57
2022-08-10T14:38:42.567Z,29.32
2022-08-10T14:43:54.129Z,29.08
2022-08-10T14:48:58.623Z,28.95
2022-08-10T14:54:04.825Z,28.86
2022-08-10T14:59:09.411Z,28.83
2022-08-10T15:04:13.916Z,28.62
2022-08-10T15:09:20.210Z,28.71
2022-08-10T15:14:43.410Z,28.83
2022-08-10T15:20:02.260Z,28.94
2022-08-10T15:25:19.657Z,28.90
2022-08-10T15:30:31.009Z,28.95
2022-08-10T15:35:52.888Z,28.66
2022-08-10T15:40:56.793Z,28.45
2022-08-10T15:46:06.539Z,28.62
2022-08-10T15:51:53.957Z,28.62
2022-08-10T15:57:03.747Z,28.52
2022-08-10T16:02:16.774Z,28.48
2022-08-10T16:07:42.903Z,28.65
2022-08-10T16:13:00.235Z,28.67
2022-08-10T16:18:02.920Z,28.70
2022-08-10T16:23:11.930Z,28.46
2022-08-10T16:28:23.192Z,28.33
2022-08-10T16:33:52.617Z,28.60
2022-08-10T16:38:52.806Z,28.76
2022-08-10T16:43:57.112Z,28.53
2022-08-10T16:49:01.137Z,28.25
2022-08-10T16:54:03.913Z,28.16
2022-08-10T16:59:07.151Z,28.07
2022-08-10T17:04:10.456Z,27.93
2022-08-10T17:09:20.084Z,27.78
2022-08-10T17:14:27.711Z,27.93
2022-08-10T17:19:35.358Z,27.78
2022-08-10T17:24:43.204Z,27.54
2022-08-10T17:29:58.923Z,27.35
2022-08-10T17:35:10.967Z,27.43
2022-08-10T17:40:16.830Z,27.24
2022-08-10T17:45:48.558Z,27.08
2022-08-10T17:50:52.820Z,26.90
2022-08-10T17:55:57.880Z,26.84
2022-08-10T18:01:38.100Z,26.83
2022-08-10T18:06:25.552Z,26.49
2022-08-10T18:11:31.063Z,26.31
2022-08-10T18:16:34.349Z,26.09
2022-08-10T18:21:43.418Z,25.77
2022-08-10T18:26:51.284Z,25.51
2022-08-10T18:32:01.535Z,25.20
2022-08-10T18:37:07.112Z,24.65
2022-08-10T18:42:19.588Z,24.00
2022-08-10T18:47:31.976Z,23.69
2022-08-10T18:52:34.327Z,23.25
2022-08-10T18:57:58.632Z,22.91
2022-08-10T19:03:15.738Z,22.69
2022-08-10T19:08:49.550Z,22.65
2022-08-10T19:14:16.311Z,22.62
2022-08-10T19:19:22.173Z,22.25
2022-08-10T19:24:43.231Z,21.95
2022-08-10T19:30:12.973Z,21.97
2022-08-10T19:36:03.537Z,22.04
2022-08-10T19:41:25.406Z,21.73
2022-08-10T19:47:05.502Z,21.25
2022-08-10T19:52:20.684Z,20.96
2022-08-10T19:57:33.277Z,21.00
2022-08-10T20:03:00.286Z,21.03
2022-08-10T20:08:17.735Z,20.99
2022-08-10T20:13:29.201Z,20.98
2022-08-10T20:18:36.855Z,20.90
2022-08-10T20:23:55.387Z,20.82
2022-08-10T20:29:03.314Z,20.60
2022-08-10T20:34:12.770Z,20.62
2022-08-10T20:39:27.008Z,20.38
2022-08-10T20:44:37.872Z,20.22
2022-08-10T20:49:57.456Z,20.39
2022-08-10T20:55:02.756Z,20.34
2022-08-10T21:00:12.711Z,20.14
2022-08-10T21:05:48.884Z,19.96
2022-08-10T21:11:13.265Z,19.86
2022-08-10T21:16:33.753Z,19.95
2022-08-10T21:22:08.772Z,19.79
2022-08-10T21:27:22.457Z,19.62
2022-08-10T21:32:30.449Z,19.56
2022-08-10T21:37:56.676Z,19.47
2022-08-10T21:43:48.597Z,19.29
2022-08-10T21:49:15.086Z,19.38
2022-08-10T21:54:46.020Z,19.23
2022-08-10T22:00:29.576Z,19.26
2022-08-10T22:05:54.290Z,19.32
2022-08-10T22:11:17.092Z,19.20
2022-08-10T22:18:10.541Z,19.05
2022-08-10T22:23:19.113Z,18.84
2022-08-10T22:28:39.966Z,18.78
2022-08-10T22:34:15.745Z,18.82
2022-08-10T22:40:12.055Z,18.55
2022-08-10T22:45:27.995Z,18.51
2022-08-10T22:50:32.099Z,18.38
2022-08-10T22:55:57.375Z,18.42
2022-08-10T23:01:12.030Z,18.38
2022-08-10T23:06:18.804Z,18.29
2022-08-10T23:11:24.890Z,18.43
2022-08-10T23:16:49.012Z,18.37
2022-08-10T23:22:04.741Z,18.28
2022-08-10T23:27:12.963Z,18.11
2022-08-10T23:32:37.278Z,18.11
2022-08-10T23:37:40.543Z,17.83
2022-08-10T23:42:47.579Z,17.74
2022-08-10T23:47:53.642Z,17.63
2022-08-10T23:52:59.366Z,17.71
2022-08-10T23:58:07.682Z,17.72
